Hauptseite
METAR-TAF:

METAR-TAF

Flughäfen :

Wittering, England

RAF Wittering

Breite: 52-37N, Länge: 000-28W, Höhe: 84 m

Beobachtung

Neuester Wetterbericht von vor 42 Minuten, um 00:50 UTC
Wind 8 kt aus Nordost
Temperatur -2°C
Luftfeuchtigkeit 86%
Luftdruck 1027 hPa
Sichtweite 10 km oder mehr

METAR: EGXT 250050Z AUTO 05008KT 9999 NCD M02/M04 Q1027

Zeit: 01:32 (01:32 UTC)

Prognose

Neuester Wetterbericht von vor 14 Stunden und 40 Minuten, um 10:52 UTC
Gültige Prognose vom 24 um 12 UTC bis 24 um 17 UTC
Wind 14 kt aus Ost
Sichtweite 10 km oder mehr
keine Wolken unter 1500 m und keine Kumulonimbus oder Gewitterwolken

TAF: EGXT 241052Z 2412/2417 09014KT CAVOK

Wetterbeobachtungen und Prognosen von mehr als 4000 Flughäfen (METAR und TAF Bericht).

Die verfügbaren Stationen werden durch gelbe und rote Markierungen auf der Karte dargestellt.

Führen Sie die Maus auf sie, um den Namen der Station zu sehen.

Darauf klicken, um die Beobachtung von Wetterbeobachtungen und Prognosen zu sehen.

Um die Karte zu ändern : klicken Sie auf den grünen Tasten mit einem schwarzen Kreuz Zum Vergrößern, auf den grünen Button mit einem Gedankenstrich zu verkleinern, oder auf die grünen Pfeile für benachbarte Karten.


METAR-TAF: